Logo AVAMET
Benvolgut visitant, si us plau, ingressa Recuperar contrasenya

Montserrat Casadalt

Dades diàries. Acumulats / Últims 30 dies disponibles

Data Temperatura (°C) Humitat rel. (%) Pressió rel. (hPa) Vent (km/h) Precipitació
Mínima Mitjana Màxima Amplitud
tèrmica
Mínima Mitjana Màxima Mínima Mitjana Màxima Predom. Mitjana Ràfega
màxima
Total
(mm)
Índex-n
Mínima Mitjana Màxima Mínima Mitjana Màxima n
0 a 1
P0 max
mm 5'
Dades mensuals acumulades fins l'últim dia disponible
05/2019 8,2 13,2 18,4 17,5 18,0 23,2 31,8 23,6 23 66 99 1.000 1.012 1.023   7,4 61,2 14,0
Dades anuals acumulades fins l'últim dia disponible
2019 1,6 9,2 18,4 13,4 10,9 19,5 31,8 30,2 11 58 100 991 1.017 1.034   9,3 83,7 219,2
Últims 30 dies disponibles
24-05-2019 14,7     16,0     18,0 3,3 72 87 98 1.011 1.013 1.014 N 5,0 30,6 6,8 0,42 0,60
23-05-2019 14,3     19,8     27,7 13,4 34 62 88 1.012 1.014 1.017 NE 5,1 29,0 0,0
22-05-2019 12,6     17,9     24,3 11,7 44 69 89 1.015 1.016 1.017 ESE 7,2 29,0 0,0
21-05-2019 14,3     16,9     23,2 8,9 53 75 90 1.012 1.013 1.016 SE 5,5 33,8 1,4
20-05-2019 12,7     17,7     23,5 10,8 34 53 84 1.009 1.011 1.013 SSE 9,0 41,8 0,0
19-05-2019 11,7     16,9     24,1 12,4 23 52 83 1.007 1.009 1.011 W 8,0 38,6 0,0
18-05-2019 11,9     15,1     19,6 7,7 45 59 83 1.006 1.007 1.009 SSE 6,3 27,4 1,0
17-05-2019 14,1     18,0     22,8 8,7 28 47 87 1.000 1.003 1.008 O 16,7 61,2 0,0
16-05-2019 14,5     17,4     22,9 8,4 50 71 86 1.003 1.009 1.014 N 5,0 33,8 0,0
15-05-2019 13,7     18,1     24,2 10,5 44 63 82 1.009 1.010 1.014 N 8,9 40,2 0,0
14-05-2019 12,4     18,9     25,7 13,3 31 63 94 1.011 1.016 1.020 SSE 6,0 41,8 0,2
13-05-2019 14,1     18,1     23,9 9,8 24 64 95 1.017 1.018 1.020 ESE 5,1 29,0 0,0
12-05-2019 13,3     18,3     22,2 8,9 42 65 86 1.018 1.021 1.023 SE 6,1 32,2 0,0
11-05-2019 16,3     20,5     24,2 7,9 42 63 85 1.012 1.016 1.022 ESE 8,4 32,2 0,0
10-05-2019 18,4     24,7     31,8 13,4 23 47 71 1.009 1.011 1.012 W 14,0 46,7 0,0
09-05-2019 17,3     21,3     28,7 11,4 28 52 66 1.009 1.010 1.012 W 13,7 41,8 0,0
08-05-2019 14,1     20,5     27,7 13,6 34 62 97 1.008 1.010 1.013 W 14,8 59,5 0,0
07-05-2019 11,6     16,5     22,1 10,5 62 81 96 1.012 1.015 1.018 WSW 4,8 29,0 0,2
06-05-2019 10,4     14,6     19,2 8,8 53 74 91 1.015 1.017 1.018 ESE 4,8 32,2 0,2
05-05-2019 11,8     15,3     19,7 7,9 30 58 87 1.011 1.013 1.016 ESE 5,6 38,6 0,0
04-05-2019 8,2     14,8     22,3 14,1 32 62 90 1.009 1.011 1.012 WNW 6,6 38,6 0,0
03-05-2019 10,1     13,2     18,5 8,4 54 79 90 1.009 1.011 1.014 ESE 3,1 29,0 1,0
02-05-2019 12,3     15,2     19,8 7,5 53 83 99 1.012 1.013 1.015 N 3,2 27,4 0,4
01-05-2019 11,4     15,1     20,3 8,9 57 84 97 1.011 1.013 1.015 N 3,7 29,0 2,8
30-04-2019 11,2     15,4     20,3 9,1 60 83 97 1.014 1.015 1.017 ESE 4,5 27,4 0,4
29-04-2019 11,1     14,6     18,9 7,8 62 82 96 1.016 1.018 1.019 ESE 2,3 24,1 0,8
28-04-2019 12,7     16,1     21,3 8,6 44 63 91 1.018 1.021 1.023 N 3,7 29,0 0,0
27-04-2019 12,5     17,0     22,2 9,7 31 50 76 1.021 1.023 1.025 N 6,6 33,8 0,0
26-04-2019 9,2     15,6     23,9 14,7 28 54 73 1.017 1.019 1.023 W 9,7 38,6 0,0
25-04-2019 12,8     15,7     21,2 8,4 35 57 75 1.007 1.010 1.016 N 13,5 53,1 0,0
Últims 13 mesos disponibles
04/2019 6,7 10,2 12,8 14,1 13,4 19,8 29,8 23,1 33 65 99 998 1.011 1.023 W 10,5 67,6 175,8
03/2019 6,4 9,6 13,7 14,1 10,9 20,5 29,1 22,7 31 52 91 1.008 1.021 1.028 N 8,0 66,0 28,2
02/2019 3,4 7,3 12,1 11,6 12,3 18,2 26,8 23,4 32 59 78 993 1.023 1.032 W 8,3 83,7 1,0
01/2019 1,6 6,3 10,4 10,4 12,0 16,4 21,4 19,8 35 52 71 1.000 1.017 1.029 W 11,9 80,5 0,2
12/2018 6,1 8,7 12,5 12,3 13,3 17,8 22,9 16,8 37 64 84 1.007 1.023 1.029 W 11,5 64,4 11,2
11/2018 6,2 10,3 14,4 13,2 12,3 17,3 23,9 17,7 46 73 99 1.000 1.014 1.022 W 10,8 70,8 182,4
10/2018 5,7 14,0 18,9 17,4 12,5 22,4 30,4 24,7 46 71 94 998 1.013 1.024 W 8,9 64,4 151,4
09/2018 15,9 19,5 22,1 22,9 22,1 27,6 31,3 15,4 51 76 89 1.010 1.017 1.027 ESE 7,1 41,8 108,0
08/2018 19,8 22,1 25,3 26,2 27,2 31,9 37,6 17,8 45 65 78 1.010 1.014 1.019 SSE 8,2 64,4 16,2
07/2018 20,1 21,4 22,9 26,1 27,9 31,6 38,0 17,9 ESE 8,3 53,1 1,0
06/2018 13,6 18,1 21,2 22,7 23,3 28,3 33,2 19,6 ESE 8,2 45,1 88,8
05/2018 8,5 13,8 16,8 18,5 19,3 24,7 29,8 21,3 W 8,4 49,9 24,8
04/2018 7,3 11,4 15,2 15,5 12,4 20,9 27,6 20,3 W 11,1 86,9 23,2
Tots els anys disponibles
2018 1,1 13,5 25,3 17,4 7,4 22,8 38,0 36,9 37 70 99 998 1.016 1.029 W 10,2 86,9 734,0
2017 -0,7 13,5 25,3 17,6 6,6 23,1 38,0 38,7 9,1 85,3 336,2
2016 1,8 13,8 27,1 17,7 9,6 22,9 39,6 37,8 9,8 83,7 541,0
2015 0,7 13,6 21,1 17,6 21,0 22,9 41,8 41,1 6,2 83,7 468,4
2014 1,3 13,8 23,5 17,8 8,8 23,2 41,1 39,8 7,6 82,1 324,0
2013 1,2 12,9 16,8 16,8 18,7 22,2 36,1 34,9 8,4 78,9 337,8
2012 -2,3 13,0 18,1 17,1 21,4 22,5 37,2 39,5 7,2 82,1 431,2
2011 -1,1 13,5 22,8 17,1 6,6 22,2 39,0 40,1 8,4 83,7 426,0
2010 -1,8 12,4 26,2 16,3 3,7 21,4 42,0 43,8 9,2 109,4 559,4
2009 -2,2 13,2 23,7 17,1 4,6 22,5 41,7 43,9 9,7 99,8 807,4
2008 1,6 12,5 17,1 21,7 37,0 35,4 10,6 74,0 733,8
2007 2,1 13,0 17,4 21,7 37,6 35,5 42 67 88 1.027 1.027 1.027 2,3 37,0 698,8
2006 -3,2 13,4 17,8 22,2 35,6 38,8 48 70 97 3,1 45,0 531,7
2005 -4,9 12,1 16,6 21,1 36,5 41,4 357,2
Temperatura (°C)
Humitat relativa (%)
Velocitat del vent i ràfega màxima (km/h)
Direcció del vent (°)
Pressió (hPa)
Precipitació (mm)
Nota sobre les dades: s'avisa a l'usuari de la provisionalitat i no oficialitat d'aquestes dades
Logo AVAMET blanc
Web allotjada a Sollutia
Llicència de Creative CommonsLa web d'AVAMET i els seus continguts estan subjectes a una llicència de
Reconeixement - No Comercial - Compartir igual
Properes estacions: Altea - Club Nàutic d'Altea (Soci), Ontinyent - El Pilar (Soci), Ares del Maestrat (Ajuntament Soci), Catadau - L'Altet (Inforatge)     - - - - -      Últimes estacions: Asp - Poliesportiu (Soci), Jacarilla - centro (MeteOrihuela), Elx - Maitino/Vallverda/Velarde/Matola/Ferriol (Soci TiempoElche.com), Orihuela - Playa Flamenca (MeteOrihuela), - - -